Time;durP1;ratioP1;P1;durP2;ratioP2;P2;SDS_P1;SDS_P2;PMS_P1;PMS_P2;Temp;Humidity;BMP_temperature;BMP_pressure;BME280_temperature;BME280_humidity;BME280_pressure;Samples;Min_cycle;Max_cycle;Signal;HPM_P1;HPM_P2
2022/04/16 00:01:24;;;;;;;16.98;10.25;;;;;;;10.42;73.34;103022.66;5037796;28;20354;-79
2022/04/16 00:03:50;;;;;;;17.88;10.60;;;;;;;10.39;73.62;103024.78;5052003;28;20469;-79
2022/04/16 00:06:15;;;;;;;19.13;9.50;;;;;;;10.31;73.47;103020.88;5051669;28;20094;-79
2022/04/16 00:08:41;;;;;;;20.25;10.30;;;;;;;10.32;73.23;103021.72;5051691;28;20078;-76
2022/04/16 00:11:07;;;;;;;15.18;10.48;;;;;;;10.26;73.62;103023.06;5049311;28;20472;-76
2022/04/16 00:13:32;;;;;;;17.67;10.07;;;;;;;10.26;73.76;103027.59;5031519;28;20054;-77
2022/04/16 00:15:58;;;;;;;17.13;10.43;;;;;;;10.19;74.06;103024.56;5043330;28;20033;-75
2022/04/16 00:18:24;;;;;;;17.90;9.98;;;;;;;10.21;73.74;103025.28;5031739;28;20029;-78
2022/04/16 00:20:49;;;;;;;17.10;10.00;;;;;;;10.16;73.81;103027.47;5031777;28;20111;-79
2022/04/16 00:23:19;;;;;;;16.02;10.07;;;;;;;10.07;74.02;103034.47;5031756;28;20405;-76
2022/04/16 00:25:45;;;;;;;16.48;9.85;;;;;;;10.06;74.24;103027.41;5039418;28;20072;-77
2022/04/16 00:28:10;;;;;;;17.58;10.50;;;;;;;10.04;74.16;103029.34;5032603;28;20064;-76
2022/04/16 00:30:40;;;;;;;18.15;10.38;;;;;;;10.04;74.12;103036.56;5032222;28;20025;-76
2022/04/16 00:33:14;;;;;;;19.25;10.15;;;;;;;10.06;73.76;103038.16;5052113;28;20366;-76
2022/04/16 00:35:43;;;;;;;17.63;10.23;;;;;;;10.01;73.65;103036.81;5043513;28;20045;-75
2022/04/16 00:38:09;;;;;;;15.65;10.25;;;;;;;10.00;74.21;103037.78;5031745;28;20040;-77
2022/04/16 00:40:34;;;;;;;19.70;11.35;;;;;;;9.95;74.30;103034.63;5032600;28;20025;-77
2022/04/16 00:43:00;;;;;;;17.88;10.38;;;;;;;9.96;74.49;103039.03;5031792;28;20447;-76
2022/04/16 00:45:26;;;;;;;17.77;11.20;;;;;;;9.94;74.29;103041.00;5031565;28;20037;-73
2022/04/16 00:47:53;;;;;;;17.45;10.48;;;;;;;9.86;74.83;103042.44;5031924;28;20030;-78
2022/04/16 00:50:18;;;;;;;16.17;10.13;;;;;;;9.89;74.56;103041.34;5033275;28;20373;-74
2022/04/16 00:52:44;;;;;;;15.15;10.52;;;;;;;9.85;74.73;103034.53;5031923;28;20113;-78
2022/04/16 00:55:10;;;;;;;16.48;10.68;;;;;;;9.87;74.67;103037.91;5049806;28;20112;-77
2022/04/16 00:57:40;;;;;;;17.55;10.05;;;;;;;9.86;75.18;103037.06;5051258;28;20025;-79
2022/04/16 01:00:07;;;;;;;18.58;11.40;;;;;;;9.85;75.11;103030.00;5050068;28;20590;-77
2022/04/16 01:02:35;;;;;;;17.80;10.13;;;;;;;9.83;74.96;103034.63;5047620;28;20443;-77
2022/04/16 01:05:00;;;;;;;21.35;11.57;;;;;;;9.80;75.14;103029.50;5047611;28;20032;-75
2022/04/16 01:07:25;;;;;;;16.58;10.85;;;;;;;9.80;74.93;103026.81;5051350;28;20052;-75
2022/04/16 01:09:51;;;;;;;14.05;10.32;;;;;;;9.83;75.05;103026.56;5053689;28;20036;-75
2022/04/16 01:12:17;;;;;;;19.00;11.55;;;;;;;9.82;75.32;103034.75;5053580;28;20025;-74
2022/04/16 01:14:43;;;;;;;16.67;10.88;;;;;;;9.82;75.19;103027.56;5053774;28;20040;-75
2022/04/16 01:17:09;;;;;;;21.05;11.15;;;;;;;9.78;74.97;103027.91;5056486;28;20029;-74
2022/04/16 01:19:37;;;;;;;22.25;11.98;;;;;;;9.77;75.32;103034.25;5044510;28;20116;-77
2022/04/16 01:22:05;;;;;;;15.68;10.75;;;;;;;9.78;75.34;103023.38;5041239;28;20057;-77
2022/04/16 01:24:30;;;;;;;17.45;11.57;;;;;;;9.75;75.41;103029.03;5045752;28;20048;-77
2022/04/16 01:26:58;;;;;;;19.25;12.10;;;;;;;9.80;75.70;103026.81;5052518;28;20544;-75
2022/04/16 01:29:31;;;;;;;20.90;12.68;;;;;;;9.78;75.24;103026.06;5046236;28;20091;-77
2022/04/16 01:31:56;;;;;;;17.92;11.32;;;;;;;9.78;74.98;103023.38;5043199;28;20044;-77
2022/04/16 01:34:22;;;;;;;18.55;12.82;;;;;;;9.84;73.67;103017.50;5036619;28;20112;-75
2022/04/16 01:36:47;;;;;;;19.55;13.18;;;;;;;9.70;73.28;103017.78;5036428;28;20070;-78
2022/04/16 01:39:12;;;;;;;21.58;13.07;;;;;;;9.55;72.60;103027.06;5038038;28;20489;-77
2022/04/16 01:41:40;;;;;;;20.85;14.20;;;;;;;9.60;71.86;103019.47;5055835;28;20512;-76
2022/04/16 01:44:06;;;;;;;18.95;13.70;;;;;;;9.56;71.45;103026.94;5055218;28;20096;-77
2022/04/16 01:46:31;;;;;;;19.70;12.52;;;;;;;9.64;71.44;103024.50;5035926;28;20513;-77
2022/04/16 01:48:56;;;;;;;19.95;13.20;;;;;;;9.60;71.44;103017.66;5035288;28;20032;-76
2022/04/16 01:51:23;;;;;;;21.88;12.57;;;;;;;9.53;71.75;103029.00;5046036;28;20369;-75
2022/04/16 01:53:48;;;;;;;21.92;14.05;;;;;;;9.41;72.10;103020.09;5053950;28;20029;-77
2022/04/16 01:56:13;;;;;;;21.13;13.40;;;;;;;9.45;72.38;103022.41;5055615;28;20373;-78
2022/04/16 01:58:39;;;;;;;23.83;13.00;;;;;;;9.41;72.44;103026.31;5054240;28;20136;-77
2022/04/16 02:01:05;;;;;;;20.20;12.70;;;;;;;9.37;72.08;103019.50;5046467;28;20032;-75
2022/04/16 02:03:34;;;;;;;22.40;13.55;;;;;;;9.30;72.38;103025.47;5053383;28;20084;-77
2022/04/16 02:06:00;;;;;;;23.42;12.95;;;;;;;9.27;72.53;103031.94;5053300;28;20032;-78
2022/04/16 02:08:25;;;;;;;18.80;13.20;;;;;;;9.19;72.27;103037.91;5054952;28;20044;-77
2022/04/16 02:10:51;;;;;;;19.58;12.85;;;;;;;9.10;72.65;103035.06;5055392;28;20472;-77
2022/04/16 02:13:16;;;;;;;19.30;13.35;;;;;;;9.09;72.34;103033.34;5043961;28;20044;-77
2022/04/16 02:15:41;;;;;;;18.63;13.23;;;;;;;9.14;72.64;103042.78;5049775;28;20387;-77
2022/04/16 02:18:07;;;;;;;18.05;12.25;;;;;;;9.12;72.57;103041.19;5033496;28;20167;-77
2022/04/16 02:20:32;;;;;;;22.48;13.80;;;;;;;9.00;72.42;103043.84;5033555;28;20030;-77
2022/04/16 02:22:57;;;;;;;20.95;12.90;;;;;;;9.01;72.70;103047.38;5033889;28;20025;-77
2022/04/16 02:25:25;;;;;;;18.65;12.57;;;;;;;9.04;72.96;103057.03;5034321;28;20034;-76
2022/04/16 02:27:51;;;;;;;24.08;12.93;;;;;;;9.08;72.98;103051.28;5034305;28;20030;-76
2022/04/16 02:30:18;;;;;;;20.92;14.05;;;;;;;9.05;73.05;103061.41;5050366;28;20032;-77
2022/04/16 02:32:48;;;;;;;19.85;12.60;;;;;;;9.00;73.62;103062.63;5036131;28;20108;-76
2022/04/16 02:35:15;;;;;;;21.40;13.35;;;;;;;9.07;73.63;103059.47;5041673;28;20033;-76
2022/04/16 02:37:41;;;;;;;21.77;13.80;;;;;;;8.99;74.01;103062.75;5052505;28;20029;-78
2022/04/16 02:40:07;;;;;;;18.42;12.02;;;;;;;8.97;73.96;103062.84;5052903;28;20032;-77
2022/04/16 02:42:36;;;;;;;18.50;12.48;;;;;;;8.89;74.13;103059.91;5033648;28;20044;-76
2022/04/16 02:47:51;;;;;;;19.40;12.73;;;;;;;8.87;73.71;103064.53;5033288;28;20072;-77
2022/04/16 02:50:19;;;;;;;20.48;12.52;;;;;;;8.84;73.82;103078.19;5033162;28;20044;-77
2022/04/16 02:52:46;;;;;;;20.15;12.77;;;;;;;8.75;74.38;103077.06;5033130;28;20033;-76
2022/04/16 02:55:15;;;;;;;18.77;11.65;;;;;;;8.76;74.44;103085.97;5034146;28;20029;-77
2022/04/16 02:57:44;;;;;;;26.63;14.27;;;;;;;8.71;74.80;103088.13;5039921;28;20102;-77
2022/04/16 03:00:11;;;;;;;23.40;13.48;;;;;;;8.70;75.04;103081.06;5053250;28;20029;-76
2022/04/16 03:02:37;;;;;;;18.83;12.87;;;;;;;8.75;75.61;103081.56;5051749;28;20059;-77
2022/04/16 03:05:03;;;;;;;18.00;12.38;;;;;;;8.67;75.19;103083.97;5052942;28;20315;-77
2022/04/16 03:07:29;;;;;;;18.95;13.10;;;;;;;8.59;75.51;103089.06;5052586;28;20473;-75
2022/04/16 03:09:54;;;;;;;18.17;12.45;;;;;;;8.52;75.69;103083.28;5044618;28;20055;-76
2022/04/16 03:12:19;;;;;;;19.85;13.85;;;;;;;8.47;75.68;103083.63;5052670;28;20055;-76
2022/04/16 03:17:31;;;;;;;17.92;12.60;;;;;;;8.41;76.32;103078.72;5053330;28;20039;-75
2022/04/16 03:19:57;;;;;;;;;;;;;;;8.41;76.20;103080.53;5053127;28;20047;-75
2022/04/16 03:22:22;;;;;;;20.48;12.95;;;;;;;8.32;76.70;103073.97;5033971;28;20388;-75
2022/04/16 03:24:47;;;;;;;17.85;13.02;;;;;;;8.28;76.62;103086.75;5032509;28;20040;-77
2022/04/16 03:27:13;;;;;;;19.33;13.30;;;;;;;8.26;76.86;103082.47;5032201;28;20029;-77
2022/04/16 03:29:38;;;;;;;22.23;12.98;;;;;;;8.23;77.00;103080.03;5032425;28;20053;-77
2022/04/16 03:32:04;;;;;;;21.60;13.93;;;;;;;8.17;76.97;103086.69;5033219;28;20044;-77
2022/04/16 03:34:30;;;;;;;19.98;13.75;;;;;;;8.09;77.45;103079.19;5032248;28;20033;-76
2022/04/16 03:36:56;;;;;;;24.02;13.18;;;;;;;8.11;77.40;103082.63;5046192;28;20032;-75
2022/04/16 03:39:22;;;;;;;21.55;14.00;;;;;;;8.09;77.63;103083.72;5052494;28;20115;-75
2022/04/16 03:41:47;;;;;;;19.60;13.32;;;;;;;8.05;77.41;103080.38;5045595;28;20109;-76
2022/04/16 03:44:13;;;;;;;23.55;14.70;;;;;;;8.03;77.49;103081.44;5030983;28;20116;-75
2022/04/16 03:46:38;;;;;;;22.08;13.63;;;;;;;7.98;77.74;103075.56;5031439;28;20029;-75
2022/04/16 03:49:03;;;;;;;18.95;13.93;;;;;;;7.94;77.99;103082.97;5029976;28;20539;-74
2022/04/16 03:51:32;;;;;;;21.35;13.98;;;;;;;7.96;77.91;103089.09;5032859;28;20171;-75
2022/04/16 03:59:59;;;;;;;24.27;14.48;;;;;;;7.94;78.13;103088.34;5050441;28;20032;-74
2022/04/16 04:02:11;;;;;;;22.80;15.00;;;;;;;7.82;77.86;103103.50;5050234;28;20063;-76
2022/04/16 04:04:36;;;;;;;24.88;15.95;;;;;;;7.77;78.57;103102.09;5049699;28;20028;-75
2022/04/16 04:07:02;;;;;;;24.27;15.35;;;;;;;7.77;78.47;103105.63;5049275;28;20154;-75
2022/04/16 04:09:27;;;;;;;27.90;15.07;;;;;;;7.72;78.55;103112.28;5041390;28;20025;-75
2022/04/16 04:11:52;;;;;;;24.88;15.82;;;;;;;7.65;78.59;103112.69;5048974;28;20056;-76
2022/04/16 04:14:18;;;;;;;23.42;15.15;;;;;;;7.62;78.89;103115.59;5049699;28;20024;-76
2022/04/16 04:16:43;;;;;;;24.73;16.15;;;;;;;7.57;78.95;103114.19;5049120;28;20380;-76
2022/04/16 04:19:08;;;;;;;24.85;16.67;;;;;;;7.58;79.15;103114.09;5047871;28;20025;-77
2022/04/16 04:21:34;;;;;;;26.65;16.05;;;;;;;7.52;79.11;103117.19;5048331;28;20024;-76
2022/04/16 04:23:59;;;;;;;26.17;16.08;;;;;;;7.49;79.66;103109.38;5049243;28;20366;-75
2022/04/16 04:26:25;;;;;;;28.95;17.40;;;;;;;7.49;79.57;103117.41;5049029;28;20033;-77
2022/04/16 04:28:51;;;;;;;29.75;16.27;;;;;;;7.50;79.89;103127.16;5047450;28;20040;-77
2022/04/16 04:31:16;;;;;;;27.95;16.55;;;;;;;7.50;79.70;103123.63;5032190;28;20040;-75
2022/04/16 04:33:41;;;;;;;29.13;17.83;;;;;;;7.46;79.99;103129.19;5029859;28;20030;-78
2022/04/16 04:36:06;;;;;;;28.95;16.90;;;;;;;7.47;80.03;103124.69;5028354;28;20032;-77
2022/04/16 04:38:32;;;;;;;27.40;17.38;;;;;;;7.42;80.34;103126.81;5049523;28;20036;-77
2022/04/16 04:40:58;;;;;;;35.92;18.00;;;;;;;7.35;80.40;103134.44;5032927;28;20075;-76
2022/04/16 04:43:24;;;;;;;30.92;17.80;;;;;;;7.36;80.98;103137.97;5029895;28;20384;-75
2022/04/16 04:45:49;;;;;;;25.45;16.88;;;;;;;7.36;81.05;103132.63;5046140;28;20040;-77
2022/04/16 04:48:15;;;;;;;28.90;17.27;;;;;;;7.30;81.12;103138.41;5048618;28;20151;-77
2022/04/16 04:50:40;;;;;;;29.63;16.67;;;;;;;7.32;81.47;103131.09;5043839;28;20052;-76
2022/04/16 04:53:05;;;;;;;27.65;17.35;;;;;;;7.36;81.41;103130.78;5048501;28;20131;-77
2022/04/16 04:55:31;;;;;;;30.73;16.70;;;;;;;7.45;80.78;103130.19;5048454;28;20025;-77
2022/04/16 04:57:56;;;;;;;32.78;17.88;;;;;;;7.40;80.75;103139.50;5043377;28;20043;-77
2022/04/16 05:00:21;;;;;;;28.52;18.02;;;;;;;7.40;80.77;103140.34;5039714;28;20040;-77
2022/04/16 05:02:47;;;;;;;28.30;17.67;;;;;;;7.41;80.98;103136.69;5050891;28;20028;-76
2022/04/16 05:05:14;;;;;;;28.73;18.02;;;;;;;7.45;80.81;103145.38;5054204;28;20036;-77
2022/04/16 05:07:39;;;;;;;27.00;17.52;;;;;;;7.45;80.79;103140.00;5032593;28;20159;-77
2022/04/16 05:10:06;;;;;;;30.83;18.23;;;;;;;7.39;81.29;103145.78;5052414;28;20077;-76
2022/04/16 05:12:31;;;;;;;28.40;16.27;;;;;;;7.44;80.92;103146.34;5044997;28;20040;-77
2022/04/16 05:14:56;;;;;;;28.67;17.35;;;;;;;7.46;81.03;103155.13;5046051;28;20037;-76
2022/04/16 05:17:22;;;;;;;30.60;18.45;;;;;;;7.43;81.00;103158.88;5049002;28;20029;-77
2022/04/16 05:19:47;;;;;;;31.58;17.25;;;;;;;7.41;81.09;103149.22;5054725;28;20437;-76
2022/04/16 05:22:13;;;;;;;28.98;17.92;;;;;;;7.44;81.04;103159.75;5054523;28;20025;-78
2022/04/16 05:24:38;;;;;;;30.92;18.52;;;;;;;7.46;81.04;103165.84;5052663;28;20029;-77
2022/04/16 05:27:04;;;;;;;30.40;17.48;;;;;;;7.41;81.08;103163.47;5041960;28;20060;-76
2022/04/16 05:32:07;;;;;;;31.77;17.95;;;;;;;7.53;81.31;103172.53;5077913;22;1084991;-82
2022/04/16 05:34:33;;;;;;;31.17;17.90;;;;;;;7.69;80.99;103166.97;5055672;28;20116;-82
2022/04/16 05:36:58;;;;;;;35.78;18.77;;;;;;;7.94;79.83;103168.78;5054119;28;20069;-81
2022/04/16 05:39:23;;;;;;;28.83;17.70;;;;;;;8.27;78.57;103183.47;5056145;28;20021;-81
2022/04/16 05:41:49;;;;;;;28.20;17.30;;;;;;;8.70;77.11;103181.25;5051811;28;20033;-82
2022/04/16 05:44:14;;;;;;;26.23;16.08;;;;;;;9.25;74.78;103175.44;5054598;28;20084;-79
2022/04/16 05:46:40;;;;;;;27.38;16.65;;;;;;;9.70;73.61;103176.41;5053647;28;20578;-84
2022/04/16 05:49:05;;;;;;;27.98;16.38;;;;;;;10.23;70.77;103176.72;5052019;28;20037;-82
2022/04/16 05:51:31;;;;;;;22.83;15.20;;;;;;;10.74;68.73;103184.28;5052212;28;20059;-82
2022/04/16 05:53:56;;;;;;;23.70;15.05;;;;;;;11.28;66.59;103176.28;5051522;28;20059;-82
2022/04/16 05:56:22;;;;;;;24.27;15.20;;;;;;;11.48;65.28;103186.25;5052716;28;20420;-82
2022/04/16 05:58:47;;;;;;;25.40;15.18;;;;;;;11.72;64.49;103185.13;5051208;28;20029;-83
2022/04/16 06:01:13;;;;;;;22.60;15.20;;;;;;;11.97;63.14;103183.88;5054462;28;20044;-81
2022/04/16 06:03:42;;;;;;;24.88;14.95;;;;;;;12.01;63.20;103180.78;5053789;28;20029;-82
2022/04/16 06:06:08;;;;;;;29.23;18.48;;;;;;;12.20;62.63;103190.81;5055216;28;20029;-82
2022/04/16 06:08:34;;;;;;;20.80;14.40;;;;;;;12.56;61.35;103185.84;5051483;28;20048;-82
2022/04/16 06:10:59;;;;;;;23.73;14.43;;;;;;;12.66;60.64;103191.25;5050577;28;20056;-81
2022/04/16 06:13:25;;;;;;;25.25;15.00;;;;;;;12.92;60.31;103189.72;5031108;28;20056;-82
2022/04/16 06:15:51;;;;;;;23.25;15.07;;;;;;;13.27;59.07;103191.09;5031709;28;20080;-83
2022/04/16 06:18:16;;;;;;;21.85;14.50;;;;;;;13.41;58.33;103197.91;5032197;28;20026;-82
2022/04/16 06:20:41;;;;;;;22.80;15.63;;;;;;;13.58;57.69;103199.03;5038601;28;20030;-82
2022/04/16 06:23:07;;;;;;;22.48;14.52;;;;;;;13.76;57.18;103202.72;5030554;28;20045;-80
2022/04/16 06:25:33;;;;;;;22.80;14.98;;;;;;;13.84;56.42;103210.94;5031994;28;20484;-80
2022/04/16 06:27:58;;;;;;;22.95;14.30;;;;;;;14.07;56.38;103210.63;5046638;28;20387;-82
2022/04/16 06:30:24;;;;;;;23.52;14.95;;;;;;;14.37;55.84;103208.66;5051517;28;20029;-79
2022/04/16 06:32:49;;;;;;;23.92;15.52;;;;;;;14.45;55.11;103214.16;5045803;28;20098;-81
2022/04/16 06:35:14;;;;;;;23.65;15.38;;;;;;;14.43;55.13;103222.47;5045729;28;20055;-81
2022/04/16 06:37:41;;;;;;;22.25;14.57;;;;;;;14.60;55.04;103217.28;5045030;28;20086;-81
2022/04/16 06:40:08;;;;;;;23.63;16.13;;;;;;;14.58;55.12;103219.28;5035302;28;20044;-81
2022/04/16 06:42:33;;;;;;;23.33;15.57;;;;;;;14.83;54.38;103223.16;5033382;28;20044;-81
2022/04/16 06:44:58;;;;;;;24.90;15.15;;;;;;;15.20;53.38;103225.75;5032311;28;20025;-81
2022/04/16 06:47:24;;;;;;;22.20;15.38;;;;;;;15.25;53.32;103223.44;5049517;28;20079;-81
2022/04/16 06:49:49;;;;;;;22.65;15.65;;;;;;;15.61;52.70;103227.97;5041207;28;20086;-81
2022/04/16 06:52:19;;;;;;;21.13;15.23;;;;;;;15.59;53.34;103231.72;5050958;28;20061;-82
2022/04/16 06:54:45;;;;;;;26.90;16.13;;;;;;;16.26;50.59;103228.47;5045286;28;20072;-82
2022/04/16 06:57:11;;;;;;;24.02;15.88;;;;;;;16.58;50.16;103232.34;5046803;28;20029;-81
2022/04/16 06:59:37;;;;;;;25.85;16.30;;;;;;;16.96;48.84;103233.72;5032970;28;20811;-81
2022/04/16 07:02:05;;;;;;;24.73;15.68;;;;;;;16.77;49.48;103233.94;5034211;28;20033;-82
2022/04/16 07:04:31;;;;;;;26.45;15.90;;;;;;;17.23;48.45;103235.28;5067422;28;20096;-81
2022/04/16 07:06:57;;;;;;;23.85;16.15;;;;;;;17.42;48.12;103241.44;5051147;28;20491;-83
2022/04/16 07:09:22;;;;;;;24.45;17.00;;;;;;;17.60;48.01;103228.50;5042934;28;20032;-82
2022/04/16 07:11:47;;;;;;;21.23;16.25;;;;;;;18.13;46.39;103240.72;5043134;28;20037;-83
2022/04/16 07:14:15;;;;;;;26.08;16.85;;;;;;;17.54;47.19;103234.66;5047702;28;20053;-82
2022/04/16 07:16:40;;;;;;;25.25;18.85;;;;;;;17.37;47.61;103233.78;5034815;28;20249;-83
2022/04/16 07:19:05;;;;;;;32.60;18.95;;;;;;;17.32;47.67;103231.56;5035221;28;20368;-82
2022/04/16 07:21:31;;;;;;;28.98;18.98;;;;;;;18.10;45.95;103224.72;5040857;28;20033;-81
2022/04/16 07:23:56;;;;;;;27.60;18.80;;;;;;;17.84;46.35;103224.09;5039184;28;20048;-82
2022/04/16 07:26:21;;;;;;;29.13;18.15;;;;;;;17.31;47.21;103229.84;5037837;28;20258;-82
2022/04/16 07:28:47;;;;;;;25.73;17.58;;;;;;;17.71;47.58;103230.03;5057649;28;20079;-81
2022/04/16 07:31:12;;;;;;;25.33;17.30;;;;;;;17.33;47.69;103227.81;5055450;28;20094;-80
2022/04/16 07:33:37;;;;;;;30.52;18.25;;;;;;;18.31;45.89;103221.44;5050729;28;20162;-79
2022/04/16 07:36:03;;;;;;;33.38;19.05;;;;;;;18.21;45.86;103227.06;5049410;28;20075;-81
2022/04/16 07:38:28;;;;;;;32.45;19.48;;;;;;;18.25;45.81;103226.75;5034477;28;20120;-81
2022/04/16 07:40:54;;;;;;;28.40;19.27;;;;;;;18.17;45.77;103239.38;5038651;28;20034;-80
2022/04/16 07:43:19;;;;;;;28.02;19.23;;;;;;;18.52;45.39;103228.19;5039682;28;20041;-80
2022/04/16 07:45:45;;;;;;;26.63;18.02;;;;;;;19.08;44.48;103235.25;5039339;28;20100;-82
2022/04/16 07:48:10;;;;;;;29.85;20.23;;;;;;;19.08;43.74;103237.97;5039974;28;20156;-82
2022/04/16 07:50:35;;;;;;;28.13;19.35;;;;;;;19.23;44.37;103232.59;5034305;28;20057;-82
2022/04/16 07:53:01;;;;;;;29.52;19.60;;;;;;;19.16;44.02;103233.50;5033487;28;20496;-81
2022/04/16 07:55:31;;;;;;;26.30;18.65;;;;;;;19.17;43.86;103230.59;5034587;28;20024;-82
2022/04/16 07:57:57;;;;;;;27.08;19.88;;;;;;;19.82;42.54;103229.22;5047564;28;20033;-81
2022/04/16 08:00:23;;;;;;;32.22;20.38;;;;;;;19.51;42.90;103224.69;5040885;28;20206;-83
2022/04/16 08:02:48;;;;;;;30.58;20.17;;;;;;;19.02;44.04;103219.59;5055979;28;20486;-82
2022/04/16 08:05:14;;;;;;;31.35;21.08;;;;;;;18.11;45.94;103234.59;5041367;28;20038;-84
2022/04/16 08:07:39;;;;;;;30.13;19.50;;;;;;;18.09;46.89;103227.63;5024377;28;20117;-80
2022/04/16 08:10:05;;;;;;;33.95;20.40;;;;;;;18.99;45.20;103214.50;5047183;28;20466;-79
2022/04/16 08:12:30;;;;;;;33.92;21.17;;;;;;;19.36;43.33;103215.59;5047323;28;20151;-80
2022/04/16 08:14:56;;;;;;;32.50;20.25;;;;;;;19.38;43.51;103213.56;5050308;28;20514;-79
2022/04/16 08:17:21;;;;;;;31.02;20.60;;;;;;;19.37;43.76;103224.63;5040706;28;20469;-79
2022/04/16 08:19:47;;;;;;;29.00;20.20;;;;;;;19.38;43.24;103219.00;5028415;28;20116;-78
2022/04/16 08:22:17;;;;;;;30.80;20.27;;;;;;;19.74;43.29;103229.31;5028991;28;20094;-79
2022/04/16 08:24:53;;;;;;;35.50;21.10;;;;;;;20.13;42.53;103222.75;5028717;28;20042;-79
2022/04/16 08:27:19;;;;;;;31.73;21.77;;;;;;;19.64;42.68;103228.69;5035571;28;20090;-80
2022/04/16 08:29:44;;;;;;;32.30;20.63;;;;;;;19.03;44.42;103226.75;5048519;28;20056;-80
2022/04/16 08:32:10;;;;;;;32.30;20.73;;;;;;;19.79;43.76;103221.41;5047172;28;20069;-80
2022/04/16 08:34:35;;;;;;;31.95;20.70;;;;;;;20.12;42.36;103232.03;5048839;28;20059;-80
2022/04/16 08:37:00;;;;;;;35.47;22.30;;;;;;;20.45;41.44;103221.53;5048028;28;20052;-80
2022/04/16 08:39:27;;;;;;;29.67;20.17;;;;;;;20.89;41.18;103222.53;5049978;28;20064;-80
2022/04/16 08:41:55;;;;;;;32.65;20.27;;;;;;;20.94;41.09;103237.34;5048670;28;20037;-80
2022/04/16 08:44:21;;;;;;;34.72;20.23;;;;;;;20.79;40.63;103239.25;5032194;28;20021;-79
2022/04/16 08:46:47;;;;;;;32.58;19.48;;;;;;;20.45;42.00;103228.88;5026819;28;20037;-80
2022/04/16 08:49:13;;;;;;;27.95;19.63;;;;;;;20.06;42.06;103243.69;5029634;28;20060;-79
2022/04/16 08:51:40;;;;;;;31.77;20.90;;;;;;;19.74;42.75;103240.22;5041826;28;20036;-80
2022/04/16 08:54:05;;;;;;;30.77;20.27;;;;;;;19.66;42.74;103227.50;5040511;28;20029;-78
2022/04/16 08:56:32;;;;;;;32.78;20.67;;;;;;;20.53;41.71;103228.78;5045994;28;20041;-81
2022/04/16 08:58:57;;;;;;;30.17;20.00;;;;;;;21.00;40.60;103236.56;5059145;28;20077;-79
2022/04/16 09:01:23;;;;;;;36.28;21.25;;;;;;;20.86;40.64;103231.97;5056826;28;20384;-79
2022/04/16 09:03:50;;;;;;;33.60;20.65;;;;;;;20.87;41.13;103232.81;5040363;28;21229;-78
2022/04/16 09:06:25;;;;;;;35.30;20.88;;;;;;;20.97;40.48;103226.00;5038430;28;20052;-79
2022/04/16 09:08:50;;;;;;;32.95;20.35;;;;;;;21.04;40.64;103228.81;5038295;28;20057;-79
2022/04/16 09:11:20;;;;;;;36.75;21.60;;;;;;;20.23;42.76;103237.00;5035151;28;20380;-80
2022/04/16 09:13:48;;;;;;;32.92;19.77;;;;;;;21.22;40.76;103234.69;5059255;28;20548;-79
2022/04/16 09:16:14;;;;;;;31.40;19.67;;;;;;;20.95;40.31;103232.69;5066497;28;20170;-79
2022/04/16 09:18:50;;;;;;;31.08;19.73;;;;;;;21.63;39.00;103222.25;5045368;28;20029;-78
2022/04/16 09:21:17;;;;;;;24.77;17.33;;;;;;;21.63;39.07;103228.56;5037842;28;20690;-80
2022/04/16 09:23:47;;;;;;;32.45;19.15;;;;;;;21.17;40.00;103228.09;5033243;28;20108;-80
2022/04/16 09:26:23;;;;;;;30.98;19.63;;;;;;;20.93;40.96;103223.81;5035622;28;20095;-80
2022/04/16 09:28:49;;;;;;;32.90;22.50;;;;;;;21.18;39.34;103227.06;5035426;28;20107;-80
2022/04/16 09:31:14;;;;;;;30.17;18.48;;;;;;;21.04;40.04;103231.56;5031136;28;20049;-79
2022/04/16 09:33:39;;;;;;;30.10;18.50;;;;;;;19.90;40.99;103226.41;5042937;28;20151;-79
2022/04/16 09:36:05;;;;;;;26.02;16.65;;;;;;;20.01;41.43;103229.72;5045775;28;20638;-80
2022/04/16 09:38:37;;;;;;;28.33;17.88;;;;;;;19.66;42.46;103232.06;5039141;28;20029;-79
2022/04/16 09:41:08;;;;;;;30.33;18.70;;;;;;;19.34;43.28;103233.19;5037205;28;20124;-79
2022/04/16 09:43:35;;;;;;;31.95;17.73;;;;;;;19.76;42.52;103226.41;5034490;28;20582;-79
2022/04/16 09:46:10;;;;;;;32.65;18.08;;;;;;;20.21;41.46;103219.94;5032137;28;20017;-80
2022/04/16 09:48:35;;;;;;;30.25;19.00;;;;;;;19.93;41.47;103223.31;5042192;28;20024;-78
2022/04/16 09:51:01;;;;;;;29.35;18.70;;;;;;;19.01;43.52;103231.56;5043034;28;20151;-78
2022/04/16 09:53:27;;;;;;;26.92;17.00;;;;;;;19.37;42.47;103228.22;5046081;28;20033;-78
2022/04/16 09:55:53;;;;;;;30.85;17.92;;;;;;;19.39;42.92;103215.22;5031508;28;20025;-79
2022/04/16 09:58:32;;;;;;;25.90;17.63;;;;;;;19.68;42.40;103224.59;5031051;28;20034;-79
2022/04/16 10:00:58;;;;;;;29.38;17.63;;;;;;;19.48;42.74;103224.19;5031868;28;20034;-79
2022/04/16 10:03:23;;;;;;;30.75;17.30;;;;;;;19.85;41.15;103226.16;5049735;28;20029;-79
2022/04/16 10:05:48;;;;;;;27.67;17.17;;;;;;;20.13;40.64;103222.75;5041591;28;20021;-79
2022/04/16 10:08:14;;;;;;;27.10;16.52;;;;;;;20.14;41.27;103232.66;5034785;28;20021;-78
2022/04/16 10:10:46;;;;;;;28.02;16.40;;;;;;;20.68;40.12;103231.53;5047595;28;20241;-79
2022/04/16 10:13:14;;;;;;;32.03;18.15;;;;;;;20.24;40.81;103222.28;5035824;28;20484;-78
2022/04/16 10:15:53;;;;;;;29.48;17.95;;;;;;;19.51;41.91;103221.97;5034887;28;20484;-80
2022/04/16 10:18:18;;;;;;;30.13;16.40;;;;;;;20.61;40.20;103224.06;5036119;28;20111;-80
2022/04/16 10:20:53;;;;;;;26.45;17.20;;;;;;;21.07;38.64;103213.91;5032696;28;20379;-81
2022/04/16 10:23:30;;;;;;;31.60;18.65;;;;;;;20.78;39.59;103216.50;5041588;28;20036;-78
2022/04/16 10:26:01;;;;;;;28.92;15.60;;;;;;;20.20;40.08;103229.19;5048087;28;20071;-79
2022/04/16 10:28:33;;;;;;;20.77;13.73;;;;;;;20.46;39.53;103222.38;5037961;28;20036;-79
2022/04/16 10:30:58;;;;;;;27.45;15.32;;;;;;;20.83;38.06;103230.47;5045646;28;20045;-77
2022/04/16 10:33:27;;;;;;;28.17;16.25;;;;;;;20.55;38.71;103230.31;5042966;28;20059;-80
2022/04/16 10:35:57;;;;;;;24.38;15.82;;;;;;;19.86;41.16;103227.00;5037160;28;20036;-78
2022/04/16 10:38:25;;;;;;;23.65;13.57;;;;;;;21.72;37.91;103217.47;5036336;28;20033;-80
2022/04/16 10:40:58;;;;;;;25.38;16.42;;;;;;;21.18;38.59;103227.91;5033865;28;20030;-81
2022/04/16 10:43:33;;;;;;;22.52;13.48;;;;;;;21.08;36.80;103224.63;5068594;28;20068;-80
2022/04/16 10:46:06;;;;;;;24.02;15.95;;;;;;;21.12;37.78;103219.63;5046859;28;20063;-81
2022/04/16 10:48:34;;;;;;;23.52;14.82;;;;;;;21.34;37.93;103221.31;5045164;28;20503;-80
2022/04/16 10:51:00;;;;;;;25.70;15.00;;;;;;;21.35;38.05;103220.25;5055092;28;20033;-78
2022/04/16 10:53:43;;;;;;;21.85;13.80;;;;;;;20.26;38.83;103216.66;5060584;28;20400;-79
2022/04/16 10:56:17;;;;;;;22.83;12.60;;;;;;;20.17;39.35;103216.75;5045689;28;20044;-80
2022/04/16 10:58:45;;;;;;;25.05;14.10;;;;;;;19.95;39.53;103214.91;5047913;28;20026;-80
2022/04/16 11:01:11;;;;;;;21.63;11.52;;;;;;;20.48;38.53;103214.81;5044785;28;20088;-79
2022/04/16 11:03:45;;;;;;;20.80;12.45;;;;;;;20.59;38.48;103212.50;5051843;28;20028;-79
2022/04/16 11:06:11;;;;;;;24.52;13.60;;;;;;;19.78;39.03;103210.69;5034674;28;20459;-80
2022/04/16 11:08:38;;;;;;;22.33;12.90;;;;;;;20.21;38.64;103219.94;5032467;28;20032;-79
2022/04/16 11:11:04;;;;;;;23.97;13.33;;;;;;;19.97;38.52;103217.47;5033191;28;20422;-81
2022/04/16 11:13:31;;;;;;;20.00;12.82;;;;;;;20.12;39.74;103199.22;5038061;28;20033;-79
2022/04/16 11:15:57;;;;;;;21.58;13.20;;;;;;;21.81;36.76;103197.94;5037861;28;20480;-80
2022/04/16 11:18:22;;;;;;;21.08;13.23;;;;;;;20.85;37.57;103196.56;5050973;28;20514;-79
2022/04/16 11:20:55;;;;;;;22.42;13.68;;;;;;;20.58;38.60;103209.94;5047441;28;20026;-78
2022/04/16 11:23:25;;;;;;;22.30;13.57;;;;;;;19.48;40.07;103192.31;5038082;28;20033;-79